sensor_id;sensor_type;location;lat;lon;timestamp;P1;durP1;ratioP1;P2;durP2;ratioP2
5357;SDS011;2702;51.014;7.170;2023-11-18T17:39:37;3.63;;;3.33;;
5357;SDS011;2702;51.014;7.170;2023-11-18T17:42:05;3.13;;;2.93;;
5357;SDS011;2702;51.014;7.170;2023-11-18T17:44:31;5.83;;;3.80;;
5357;SDS011;2702;51.014;7.170;2023-11-18T17:46:58;3.73;;;3.43;;
5357;SDS011;2702;51.014;7.170;2023-11-18T17:49:26;3.33;;;3.03;;
5357;SDS011;2702;51.014;7.170;2023-11-18T17:51:56;3.40;;;3.00;;
5357;SDS011;2702;51.014;7.170;2023-11-18T17:54:23;3.43;;;3.13;;
5357;SDS011;2702;51.014;7.170;2023-11-18T17:56:52;3.87;;;3.57;;
5357;SDS011;2702;51.014;7.170;2023-11-18T17:59:18;3.43;;;3.10;;
5357;SDS011;2702;51.014;7.170;2023-11-18T18:01:45;3.37;;;3.13;;
5357;SDS011;2702;51.014;7.170;2023-11-18T18:04:11;3.40;;;2.47;;
5357;SDS011;2702;51.014;7.170;2023-11-18T18:06:37;3.37;;;3.17;;
5357;SDS011;2702;51.014;7.170;2023-11-18T18:09:04;3.27;;;3.07;;
5357;SDS011;2702;51.014;7.170;2023-11-18T18:11:30;5.33;;;3.60;;
5357;SDS011;2702;51.014;7.170;2023-11-18T18:13:56;6.53;;;3.77;;
5357;SDS011;2702;51.014;7.170;2023-11-18T18:16:23;3.67;;;3.47;;
5357;SDS011;2702;51.014;7.170;2023-11-18T18:18:49;4.33;;;3.93;;
5357;SDS011;2702;51.014;7.170;2023-11-18T18:21:16;4.50;;;4.10;;
5357;SDS011;2702;51.014;7.170;2023-11-18T18:23:42;3.37;;;3.07;;
5357;SDS011;2702;51.014;7.170;2023-11-18T18:26:09;3.33;;;3.00;;
5357;SDS011;2702;51.014;7.170;2023-11-18T18:28:36;3.00;;;2.80;;
5357;SDS011;2702;51.014;7.170;2023-11-18T18:31:02;3.50;;;3.20;;
5357;SDS011;2702;51.014;7.170;2023-11-18T18:33:28;3.00;;;2.80;;
5357;SDS011;2702;51.014;7.170;2023-11-18T18:35:56;3.60;;;3.40;;
5357;SDS011;2702;51.014;7.170;2023-11-18T18:38:23;4.27;;;3.87;;
5357;SDS011;2702;51.014;7.170;2023-11-18T18:40:50;3.77;;;3.40;;
5357;SDS011;2702;51.014;7.170;2023-11-18T18:43:17;3.87;;;3.57;;
5357;SDS011;2702;51.014;7.170;2023-11-18T18:45:43;3.67;;;3.37;;
5357;SDS011;2702;51.014;7.170;2023-11-18T18:48:10;3.90;;;3.60;;
5357;SDS011;2702;51.014;7.170;2023-11-18T18:50:36;3.50;;;3.20;;
5357;SDS011;2702;51.014;7.170;2023-11-18T18:53:05;3.80;;;3.50;;
5357;SDS011;2702;51.014;7.170;2023-11-18T18:55:33;3.70;;;3.40;;
5357;SDS011;2702;51.014;7.170;2023-11-18T18:58:00;5.00;;;3.83;;
5357;SDS011;2702;51.014;7.170;2023-11-18T19:00:26;3.77;;;3.47;;
5357;SDS011;2702;51.014;7.170;2023-11-18T19:02:53;4.27;;;3.97;;
5357;SDS011;2702;51.014;7.170;2023-11-18T19:05:21;4.07;;;3.73;;
5357;SDS011;2702;51.014;7.170;2023-11-18T19:07:51;3.93;;;3.60;;
5357;SDS011;2702;51.014;7.170;2023-11-18T19:10:23;4.13;;;3.83;;
5357;SDS011;2702;51.014;7.170;2023-11-18T19:12:54;4.73;;;4.23;;
5357;SDS011;2702;51.014;7.170;2023-11-18T19:15:26;4.53;;;4.20;;
5357;SDS011;2702;51.014;7.170;2023-11-18T19:17:53;4.00;;;3.60;;
5357;SDS011;2702;51.014;7.170;2023-11-18T19:20:19;4.50;;;4.10;;
5357;SDS011;2702;51.014;7.170;2023-11-18T19:22:47;4.50;;;4.10;;
5357;SDS011;2702;51.014;7.170;2023-11-18T19:25:13;4.97;;;4.57;;
5357;SDS011;2702;51.014;7.170;2023-11-18T19:27:41;4.50;;;4.20;;
5357;SDS011;2702;51.014;7.170;2023-11-18T19:30:09;4.57;;;4.03;;
5357;SDS011;2702;51.014;7.170;2023-11-18T19:32:38;4.00;;;3.70;;
5357;SDS011;2702;51.014;7.170;2023-11-18T19:35:06;4.23;;;3.83;;
5357;SDS011;2702;51.014;7.170;2023-11-18T19:37:34;5.90;;;4.30;;
5357;SDS011;2702;51.014;7.170;2023-11-18T19:40:01;4.10;;;3.80;;
5357;SDS011;2702;51.014;7.170;2023-11-18T19:42:35;4.73;;;4.33;;
5357;SDS011;2702;51.014;7.170;2023-11-18T19:45:02;5.03;;;4.63;;
5357;SDS011;2702;51.014;7.170;2023-11-18T19:47:30;6.23;;;5.50;;
5357;SDS011;2702;51.014;7.170;2023-11-18T19:49:58;5.30;;;4.90;;
5357;SDS011;2702;51.014;7.170;2023-11-18T19:52:25;5.47;;;4.97;;
5357;SDS011;2702;51.014;7.170;2023-11-18T19:54:53;4.90;;;4.47;;
5357;SDS011;2702;51.014;7.170;2023-11-18T19:57:24;5.10;;;4.70;;
5357;SDS011;2702;51.014;7.170;2023-11-18T19:59:51;5.30;;;4.73;;
5357;SDS011;2702;51.014;7.170;2023-11-18T20:02:19;5.10;;;4.70;;
5357;SDS011;2702;51.014;7.170;2023-11-18T20:04:46;5.20;;;4.80;;
5357;SDS011;2702;51.014;7.170;2023-11-18T20:07:13;4.63;;;4.33;;
5357;SDS011;2702;51.014;7.170;2023-11-18T20:09:42;5.50;;;5.00;;
5357;SDS011;2702;51.014;7.170;2023-11-18T20:12:09;5.00;;;4.60;;
5357;SDS011;2702;51.014;7.170;2023-11-18T20:14:37;4.60;;;4.20;;
5357;SDS011;2702;51.014;7.170;2023-11-18T20:17:04;4.57;;;4.17;;
5357;SDS011;2702;51.014;7.170;2023-11-18T20:19:31;4.23;;;3.93;;
5357;SDS011;2702;51.014;7.170;2023-11-18T20:21:58;4.37;;;4.07;;
5357;SDS011;2702;51.014;7.170;2023-11-18T20:24:26;4.27;;;3.87;;
5357;SDS011;2702;51.014;7.170;2023-11-18T20:26:54;4.27;;;3.97;;
5357;SDS011;2702;51.014;7.170;2023-11-18T20:29:21;4.10;;;3.80;;
5357;SDS011;2702;51.014;7.170;2023-11-18T20:31:48;5.87;;;5.07;;
5357;SDS011;2702;51.014;7.170;2023-11-18T20:34:16;4.10;;;3.70;;
5357;SDS011;2702;51.014;7.170;2023-11-18T20:36:44;4.07;;;3.77;;
5357;SDS011;2702;51.014;7.170;2023-11-18T20:39:11;3.87;;;3.60;;
5357;SDS011;2702;51.014;7.170;2023-11-18T20:41:44;4.60;;;4.20;;
5357;SDS011;2702;51.014;7.170;2023-11-18T20:44:13;4.10;;;3.53;;
5357;SDS011;2702;51.014;7.170;2023-11-18T20:46:41;4.67;;;4.27;;
5357;SDS011;2702;51.014;7.170;2023-11-18T20:49:11;4.27;;;3.97;;
5357;SDS011;2702;51.014;7.170;2023-11-18T20:51:38;4.37;;;3.97;;
5357;SDS011;2702;51.014;7.170;2023-11-18T20:54:05;4.77;;;4.30;;
5357;SDS011;2702;51.014;7.170;2023-11-18T20:56:33;3.93;;;3.60;;
5357;SDS011;2702;51.014;7.170;2023-11-18T20:59:00;4.83;;;4.33;;
5357;SDS011;2702;51.014;7.170;2023-11-18T21:01:27;4.70;;;4.30;;
5357;SDS011;2702;51.014;7.170;2023-11-18T21:03:55;4.00;;;3.60;;
5357;SDS011;2702;51.014;7.170;2023-11-18T21:06:22;4.00;;;3.70;;
5357;SDS011;2702;51.014;7.170;2023-11-18T21:08:49;4.93;;;4.47;;
5357;SDS011;2702;51.014;7.170;2023-11-18T21:11:16;4.70;;;4.30;;
5357;SDS011;2702;51.014;7.170;2023-11-18T21:13:44;4.07;;;3.77;;
5357;SDS011;2702;51.014;7.170;2023-11-18T21:16:12;5.03;;;4.53;;
5357;SDS011;2702;51.014;7.170;2023-11-18T21:18:41;4.20;;;3.90;;
5357;SDS011;2702;51.014;7.170;2023-11-18T21:21:08;4.47;;;4.07;;
5357;SDS011;2702;51.014;7.170;2023-11-18T21:23:38;4.47;;;4.07;;
5357;SDS011;2702;51.014;7.170;2023-11-18T21:26:05;4.20;;;3.90;;
5357;SDS011;2702;51.014;7.170;2023-11-18T21:28:32;3.73;;;3.43;;
5357;SDS011;2702;51.014;7.170;2023-11-18T21:30:59;4.50;;;4.10;;
5357;SDS011;2702;51.014;7.170;2023-11-18T21:33:27;4.10;;;3.80;;
5357;SDS011;2702;51.014;7.170;2023-11-18T21:35:54;4.57;;;4.17;;
5357;SDS011;2702;51.014;7.170;2023-11-18T21:38:21;4.10;;;3.80;;
5357;SDS011;2702;51.014;7.170;2023-11-18T21:40:48;3.87;;;3.57;;
5357;SDS011;2702;51.014;7.170;2023-11-18T21:43:16;4.27;;;3.87;;
5357;SDS011;2702;51.014;7.170;2023-11-18T21:45:43;3.53;;;3.27;;
5357;SDS011;2702;51.014;7.170;2023-11-18T21:48:10;4.20;;;3.90;;
5357;SDS011;2702;51.014;7.170;2023-11-18T21:50:37;3.57;;;3.27;;
5357;SDS011;2702;51.014;7.170;2023-11-18T21:53:04;2.90;;;2.70;;
5357;SDS011;2702;51.014;7.170;2023-11-18T21:55:32;2.70;;;2.50;;
5357;SDS011;2702;51.014;7.170;2023-11-18T21:57:59;3.00;;;2.80;;
5357;SDS011;2702;51.014;7.170;2023-11-18T22:00:27;2.73;;;2.53;;
5357;SDS011;2702;51.014;7.170;2023-11-18T22:02:54;2.90;;;2.70;;
5357;SDS011;2702;51.014;7.170;2023-11-18T22:05:20;3.20;;;2.90;;
5357;SDS011;2702;51.014;7.170;2023-11-18T22:07:49;2.50;;;2.30;;
5357;SDS011;2702;51.014;7.170;2023-11-18T22:10:16;3.20;;;2.90;;
5357;SDS011;2702;51.014;7.170;2023-11-18T22:12:44;2.80;;;2.60;;
5357;SDS011;2702;51.014;7.170;2023-11-18T22:15:11;2.87;;;2.67;;
5357;SDS011;2702;51.014;7.170;2023-11-18T22:17:43;2.70;;;2.50;;
5357;SDS011;2702;51.014;7.170;2023-11-18T22:20:10;2.87;;;2.67;;
5357;SDS011;2702;51.014;7.170;2023-11-18T22:22:38;2.93;;;2.63;;
5357;SDS011;2702;51.014;7.170;2023-11-18T22:25:05;2.80;;;2.57;;
5357;SDS011;2702;51.014;7.170;2023-11-18T22:27:35;3.43;;;2.80;;
5357;SDS011;2702;51.014;7.170;2023-11-18T22:30:06;2.90;;;2.70;;
5357;SDS011;2702;51.014;7.170;2023-11-18T22:32:34;2.50;;;2.30;;
5357;SDS011;2702;51.014;7.170;2023-11-18T22:35:04;2.07;;;1.97;;
5357;SDS011;2702;51.014;7.170;2023-11-18T22:37:33;3.10;;;2.90;;
5357;SDS011;2702;51.014;7.170;2023-11-18T22:40:02;2.53;;;2.40;;
5357;SDS011;2702;51.014;7.170;2023-11-18T22:42:35;2.10;;;2.00;;
5357;SDS011;2702;51.014;7.170;2023-11-18T22:45:03;1.87;;;1.63;;
5357;SDS011;2702;51.014;7.170;2023-11-18T22:47:31;1.60;;;1.50;;
5357;SDS011;2702;51.014;7.170;2023-11-18T22:49:57;1.70;;;1.47;;
5357;SDS011;2702;51.014;7.170;2023-11-18T22:52:25;2.63;;;1.77;;
5357;SDS011;2702;51.014;7.170;2023-11-18T22:54:51;1.70;;;1.60;;
5357;SDS011;2702;51.014;7.170;2023-11-18T22:57:18;1.50;;;1.40;;
5357;SDS011;2702;51.014;7.170;2023-11-18T22:59:45;1.80;;;1.70;;
5357;SDS011;2702;51.014;7.170;2023-11-18T23:02:12;2.40;;;2.20;;
5357;SDS011;2702;51.014;7.170;2023-11-18T23:04:42;1.20;;;1.20;;
5357;SDS011;2702;51.014;7.170;2023-11-18T23:07:11;1.03;;;1.03;;
5357;SDS011;2702;51.014;7.170;2023-11-18T23:09:37;1.37;;;1.30;;
5357;SDS011;2702;51.014;7.170;2023-11-18T23:12:04;7.07;;;1.50;;
5357;SDS011;2702;51.014;7.170;2023-11-18T23:14:31;1.20;;;1.10;;
5357;SDS011;2702;51.014;7.170;2023-11-18T23:16:58;1.80;;;1.30;;
5357;SDS011;2702;51.014;7.170;2023-11-18T23:19:25;0.90;;;0.90;;
5357;SDS011;2702;51.014;7.170;2023-11-18T23:21:51;2.63;;;1.10;;
5357;SDS011;2702;51.014;7.170;2023-11-18T23:24:18;1.73;;;1.30;;
5357;SDS011;2702;51.014;7.170;2023-11-18T23:26:46;0.90;;;0.90;;
5357;SDS011;2702;51.014;7.170;2023-11-18T23:29:12;1.80;;;0.97;;
5357;SDS011;2702;51.014;7.170;2023-11-18T23:31:39;1.30;;;1.20;;
5357;SDS011;2702;51.014;7.170;2023-11-18T23:34:08;1.07;;;0.90;;
5357;SDS011;2702;51.014;7.170;2023-11-18T23:36:34;1.20;;;1.20;;
5357;SDS011;2702;51.014;7.170;2023-11-18T23:39:00;1.00;;;1.00;;
5357;SDS011;2702;51.014;7.170;2023-11-18T23:41:27;0.80;;;0.70;;
5357;SDS011;2702;51.014;7.170;2023-11-18T23:43:54;1.43;;;0.70;;
5357;SDS011;2702;51.014;7.170;2023-11-18T23:46:21;0.80;;;0.80;;
5357;SDS011;2702;51.014;7.170;2023-11-18T23:48:47;1.37;;;0.70;;
5357;SDS011;2702;51.014;7.170;2023-11-18T23:51:15;0.70;;;0.60;;
5357;SDS011;2702;51.014;7.170;2023-11-18T23:53:43;0.90;;;0.67;;
5357;SDS011;2702;51.014;7.170;2023-11-18T23:56:09;1.53;;;0.90;;
5357;SDS011;2702;51.014;7.170;2023-11-18T23:58:35;0.63;;;0.63;;
